Time;durP1;ratioP1;P1;durP2;ratioP2;P2;SDS_P1;SDS_P2;PMS_P1;PMS_P2;Temp;Humidity;BMP_temperature;BMP_pressure;BME280_temperature;BME280_humidity;BME280_pressure;Samples;Min_cycle;Max_cycle;Signal;HPM_P1;HPM_P2
2021/08/31 00:00:52;;;;;;;0.10;0.10;;;;;;;18.67;66.46;102518.72;5006137;28;20045;-94
2021/08/31 00:03:20;;;;;;;0.30;0.30;;;;;;;18.67;66.13;102513.38;5014708;28;20022;-85
2021/08/31 00:05:47;;;;;;;0.10;0.10;;;;;;;18.66;66.21;102516.97;4979372;28;20078;-88
2021/08/31 00:08:15;;;;;;;0.22;0.22;;;;;;;18.65;66.22;102517.88;4975044;28;20511;-90
2021/08/31 00:10:48;;;;;;;0.10;0.10;;;;;;;18.65;66.32;102520.56;4981208;28;20078;-96
2021/08/31 00:13:15;;;;;;;0.50;0.50;;;;;;;18.52;66.83;102522.72;4976260;28;20023;-95
2021/08/31 00:15:43;;;;;;;0.82;0.75;;;;;;;18.52;66.97;102520.03;4973930;28;20062;-96
2021/08/31 00:18:10;;;;;;;0.20;0.20;;;;;;;18.56;66.91;102516.31;4966398;28;20483;-93
2021/08/31 00:20:37;;;;;;;0.43;0.43;;;;;;;18.61;66.62;102523.41;4963120;28;20031;-96
2021/08/31 00:23:13;;;;;;;0.10;0.10;;;;;;;18.58;67.14;102519.00;4985693;28;20034;-94
2021/08/31 00:25:40;;;;;;;1.27;1.20;;;;;;;18.57;66.43;102519.91;4967883;28;20038;-96
2021/08/31 00:28:06;;;;;;;0.00;0.00;;;;;;;18.61;66.61;102529.63;4963791;28;20039;-95
2021/08/31 00:30:33;;;;;;;0.10;0.10;;;;;;;18.61;66.74;102526.09;4968755;28;20039;-96
2021/08/31 00:33:00;;;;;;;0.28;0.28;;;;;;;18.55;66.85;102535.16;4962750;28;20035;-96
2021/08/31 00:35:27;;;;;;;0.90;0.90;;;;;;;18.53;67.04;102537.00;4971081;28;20031;-96
2021/08/31 00:37:53;;;;;;;0.98;0.40;;;;;;;18.61;66.45;102531.44;4969079;28;20037;-96
2021/08/31 00:40:20;;;;;;;0.10;0.10;;;;;;;18.57;67.03;102533.34;4969430;28;20030;-96
2021/08/31 00:42:49;;;;;;;0.10;0.10;;;;;;;18.53;67.02;102537.00;4981752;28;20109;-96
2021/08/31 00:45:24;;;;;;;0.32;0.32;;;;;;;18.60;66.18;102533.25;5002806;28;20050;-94
2021/08/31 00:47:53;;;;;;;0.10;0.10;;;;;;;18.61;66.47;102531.44;4987043;28;20042;-96
2021/08/31 00:50:20;;;;;;;0.50;0.50;;;;;;;18.59;66.54;102542.22;4981084;28;20514;-96
2021/08/31 00:52:48;;;;;;;0.10;0.10;;;;;;;18.59;66.68;102534.16;4976851;28;20050;-96
2021/08/31 00:55:14;;;;;;;0.32;0.32;;;;;;;18.59;66.48;102531.47;4977674;28;20030;-96
2021/08/31 00:57:41;;;;;;;0.00;0.00;;;;;;;18.56;66.66;102537.81;4981183;28;20027;-96
2021/08/31 01:00:12;;;;;;;0.28;0.28;;;;;;;18.59;66.37;102534.16;4985624;28;20029;-96
2021/08/31 01:02:40;;;;;;;0.10;0.10;;;;;;;18.56;66.55;102536.94;4987073;28;20478;-96
2021/08/31 01:05:08;;;;;;;0.10;0.10;;;;;;;18.56;66.19;102539.63;4977405;28;20023;-96
2021/08/31 01:07:35;;;;;;;0.20;0.20;;;;;;;18.54;66.25;102536.09;4981529;28;20034;-96
2021/08/31 01:10:04;;;;;;;0.32;0.32;;;;;;;18.44;66.64;102535.44;4984046;28;20037;-95
2021/08/31 01:12:32;;;;;;;0.20;0.20;;;;;;;18.37;66.59;102542.78;4977044;28;20042;-92
2021/08/31 01:14:59;;;;;;;0.30;0.30;;;;;;;18.35;67.21;102549.97;4990290;28;20051;-94
2021/08/31 01:17:28;;;;;;;0.77;0.77;;;;;;;18.40;66.74;102553.41;4970154;28;20039;-93
2021/08/31 01:19:56;;;;;;;0.10;0.10;;;;;;;18.43;66.64;102558.72;4976220;28;20058;-96
2021/08/31 01:22:22;;;;;;;0.10;0.10;;;;;;;18.37;66.89;102558.88;4979895;28;20475;-93
2021/08/31 01:25:03;;;;;;;0.08;0.08;;;;;;;18.37;66.96;102558.00;4984206;28;20394;-92
2021/08/31 01:27:31;;;;;;;0.50;0.50;;;;;;;18.39;66.63;102551.69;4993389;28;20039;-93
2021/08/31 01:30:40;;;;;;;0.10;0.10;;;;;;;18.45;66.27;102547.94;5004203;23;20038;-81
2021/08/31 01:33:18;;;;;;;0.10;0.10;;;;;;;18.27;66.84;102552.00;5125926;22;20035;-79
2021/08/31 01:35:50;;;;;;;0.10;0.10;;;;;;;18.20;67.55;102555.75;4996145;28;20046;-87
2021/08/31 01:38:27;;;;;;;0.10;0.10;;;;;;;18.18;67.25;102554.88;4995162;28;20034;-95
2021/08/31 01:40:53;;;;;;;1.42;1.33;;;;;;;18.14;67.11;102554.06;4994060;28;20034;-96
2021/08/31 01:43:25;;;;;;;0.22;0.22;;;;;;;18.14;67.11;102555.91;4995612;28;20446;-96
2021/08/31 01:48:40;;;;;;;0.30;0.30;;;;;;;18.08;67.47;102573.91;5040274;22;20109;-88
2021/08/31 01:54:38;;;;;;;0.60;0.57;;;;;;;18.06;67.87;102573.06;5027386;22;20107;-93
2021/08/31 01:57:05;;;;;;;0.20;0.20;;;;;;;18.07;67.65;102572.13;4991423;28;20058;-95
2021/08/31 01:59:32;;;;;;;1.45;0.50;;;;;;;18.07;67.53;102573.94;5007423;28;20537;-96
2021/08/31 02:02:19;;;;;;;0.30;0.30;;;;;;;18.14;67.52;102582.72;5045923;22;20038;-79
2021/08/31 02:05:14;;;;;;;0.93;0.38;;;;;;;18.16;67.47;102576.41;5009679;22;20055;-82
2021/08/31 02:08:02;;;;;;;0.63;0.63;;;;;;;18.07;67.53;102571.28;5192016;22;20034;-90
2021/08/31 02:10:50;;;;;;;0.52;0.52;;;;;;;18.06;67.60;102580.22;5027592;22;20031;-89
2021/08/31 02:13:21;;;;;;;0.32;0.32;;;;;;;18.06;67.71;102573.06;5018614;28;20046;-96
2021/08/31 02:15:48;;;;;;;1.27;1.17;;;;;;;17.99;68.14;102573.25;5015970;28;20030;-88
2021/08/31 02:18:43;;;;;;;0.25;0.25;;;;;;;18.05;67.77;102571.28;5013660;28;20037;-94
2021/08/31 02:21:25;;;;;;;1.17;1.17;;;;;;;18.06;67.89;102570.38;5015653;28;20065;-93
2021/08/31 02:23:52;;;;;;;0.30;0.25;;;;;;;18.05;67.98;102576.66;5004810;28;20038;-96
2021/08/31 02:26:21;;;;;;;0.10;0.10;;;;;;;18.05;68.08;102568.59;5012327;28;20035;-94
2021/08/31 02:29:11;;;;;;;0.10;0.10;;;;;;;18.13;67.83;102563.06;5014244;28;20050;-80
2021/08/31 02:32:32;;;;;;;0.40;0.40;;;;;;;18.15;67.66;102563.91;5121041;22;20005;-81
2021/08/31 02:35:34;;;;;;;0.30;0.30;;;;;;;18.16;67.53;102554.94;5173210;22;20038;-80
2021/08/31 02:38:21;;;;;;;3.10;0.63;;;;;;;18.06;67.52;102567.69;5128283;22;20042;-79
2021/08/31 02:41:32;;;;;;;0.30;0.30;;;;;;;18.05;68.12;102568.59;5051163;22;20055;-85
2021/08/31 02:46:58;;;;;;;0.10;0.10;;;;;;;18.03;68.01;102564.19;5063485;22;20050;-90
2021/08/31 02:49:45;;;;;;;0.10;0.10;;;;;;;18.03;67.54;102559.72;5002694;28;20033;-86
2021/08/31 02:52:12;;;;;;;0.22;0.22;;;;;;;17.96;68.17;102560.78;4988421;28;20033;-96
2021/08/31 02:54:41;;;;;;;0.35;0.35;;;;;;;17.96;67.79;102552.75;4992098;28;20031;-92
2021/08/31 02:57:10;;;;;;;;;;;;;;;18.12;67.06;102547.91;4982584;28;20095;-96
2021/08/31 02:59:55;;;;;;;0.10;0.10;;;;;;;18.00;67.27;102559.78;4992924;28;19913;-96
2021/08/31 03:02:26;;;;;;;0.80;0.80;;;;;;;17.83;68.68;102556.59;4997359;28;20036;-95
2021/08/31 03:04:58;;;;;;;0.30;0.30;;;;;;;17.86;68.29;102564.56;4998404;28;20027;-96
2021/08/31 03:07:26;;;;;;;0.10;0.10;;;;;;;17.86;67.82;102564.56;5001217;28;20035;-95
2021/08/31 03:09:53;;;;;;;0.20;0.20;;;;;;;17.81;67.94;102570.03;5016476;28;20050;-84
2021/08/31 03:12:19;;;;;;;0.45;0.45;;;;;;;17.90;67.43;102569.81;5017810;28;20034;-90
2021/08/31 03:14:45;;;;;;;0.32;0.30;;;;;;;17.93;67.43;102569.75;5001822;28;20034;-89
2021/08/31 03:17:12;;;;;;;0.20;0.20;;;;;;;17.91;67.34;102573.38;5000505;28;20046;-96
2021/08/31 03:19:59;;;;;;;0.10;0.10;;;;;;;17.84;68.50;102575.31;5000613;28;20409;-96
2021/08/31 03:22:26;;;;;;;0.10;0.10;;;;;;;17.90;67.54;102572.50;5000744;28;20027;-86
2021/08/31 03:25:19;;;;;;;0.10;0.10;;;;;;;17.94;67.35;102570.66;4999235;28;20043;-80
2021/08/31 03:27:55;;;;;;;0.10;0.10;;;;;;;17.88;67.55;102570.75;4999330;28;20030;-82
2021/08/31 03:30:38;;;;;;;0.10;0.10;;;;;;;17.95;67.76;102567.06;4985898;28;20022;-80
2021/08/31 03:33:05;;;;;;;0.38;0.38;;;;;;;17.94;67.30;102567.97;5002066;28;20023;-80
2021/08/31 03:35:34;;;;;;;0.20;0.20;;;;;;;17.84;68.13;102567.28;4998901;28;20116;-80
2021/08/31 03:38:15;;;;;;;0.10;0.10;;;;;;;17.92;67.91;102569.78;5002948;28;20027;-93
2021/08/31 03:41:01;;;;;;;0.10;0.10;;;;;;;17.87;68.29;102569.00;5014306;28;20026;-88
2021/08/31 03:44:20;;;;;;;0.10;0.10;;;;;;;17.96;68.01;102568.84;5026308;22;20039;-83
2021/08/31 03:46:50;;;;;;;0.30;0.30;;;;;;;17.88;68.52;102565.41;5003816;28;20097;-90
2021/08/31 03:49:17;;;;;;;0.13;0.13;;;;;;;17.89;68.23;102583.25;4989255;28;20039;-91
2021/08/31 03:51:44;;;;;;;0.55;0.55;;;;;;;17.92;67.75;102578.72;4974024;28;20534;-86
2021/08/31 03:54:27;;;;;;;0.15;0.15;;;;;;;17.98;67.82;102587.56;4978956;28;20034;-89
2021/08/31 03:56:54;;;;;;;0.10;0.10;;;;;;;17.89;68.07;102589.50;5012164;28;20038;-92
2021/08/31 03:59:22;;;;;;;0.82;0.75;;;;;;;17.83;68.41;102584.31;5015122;28;20077;-91
2021/08/31 04:01:56;;;;;;;0.28;0.28;;;;;;;17.84;68.43;102588.72;5014247;28;20065;-96
2021/08/31 04:04:22;;;;;;;0.20;0.20;;;;;;;17.86;67.78;102588.72;5006285;28;20039;-92
2021/08/31 04:06:51;;;;;;;0.10;0.10;;;;;;;17.88;67.76;102581.50;4996755;28;20015;-87
2021/08/31 04:09:45;;;;;;;0.15;0.15;;;;;;;17.92;67.79;102577.84;5007222;28;20029;-80
2021/08/31 04:12:47;;;;;;;1.70;1.05;;;;;;;17.81;68.55;102580.75;5017877;28;20046;-85
2021/08/31 04:15:22;;;;;;;0.63;0.63;;;;;;;17.87;67.98;102583.31;5016881;28;20073;-81
2021/08/31 04:18:09;;;;;;;0.08;0.08;;;;;;;17.78;68.47;102587.06;5132775;22;20061;-82
2021/08/31 04:21:15;;;;;;;0.10;0.10;;;;;;;17.86;68.60;102586.91;5017925;28;20049;-80
2021/08/31 04:23:42;;;;;;;0.20;0.20;;;;;;;17.77;68.87;102596.03;5014313;28;20038;-80
2021/08/31 04:26:12;;;;;;;0.43;0.43;;;;;;;17.87;68.43;102595.81;5008479;28;20026;-95
2021/08/31 04:28:41;;;;;;;0.55;0.55;;;;;;;17.82;68.59;102592.34;5010712;28;20046;-90
2021/08/31 04:31:11;;;;;;;0.20;0.20;;;;;;;17.83;68.72;102594.13;5015162;28;20041;-83
2021/08/31 04:36:43;;;;;;;0.10;0.10;;;;;;;17.88;68.28;102600.25;5170171;22;20888;-80
2021/08/31 04:39:29;;;;;;;0.10;0.10;;;;;;;17.92;68.01;102604.66;5148174;22;20080;-80
2021/08/31 04:42:09;;;;;;;1.77;0.63;;;;;;;17.92;67.90;102599.28;5133846;22;20069;-94
2021/08/31 04:45:21;;;;;;;0.10;0.10;;;;;;;18.02;67.93;102600.88;4997979;28;20019;-87
2021/08/31 04:48:40;;;;;;;0.60;0.60;;;;;;;17.99;67.92;102611.66;5105286;23;20042;-96
2021/08/31 04:56:44;;;;;;;0.10;0.10;;;;;;;17.95;67.77;102609.97;5052900;22;20110;-81
2021/08/31 05:00:04;;;;;;;0.20;0.20;;;;;;;17.96;68.07;102611.75;5254465;22;20046;-80
2021/08/31 05:02:34;;;;;;;0.30;0.30;;;;;;;17.92;67.60;102612.69;5036151;23;20041;-80
2021/08/31 05:05:03;;;;;;;0.85;0.70;;;;;;;17.92;67.93;102618.06;5004988;28;20019;-80
2021/08/31 05:07:30;;;;;;;0.10;0.10;;;;;;;17.92;67.66;102613.56;4995838;28;20026;-84
2021/08/31 05:09:56;;;;;;;0.10;0.10;;;;;;;17.91;67.64;102617.16;4993181;28;20105;-82
2021/08/31 05:12:37;;;;;;;0.20;0.20;;;;;;;17.95;67.41;102616.19;4995295;28;20054;-85
2021/08/31 05:15:05;;;;;;;0.10;0.10;;;;;;;17.94;67.67;102630.56;4996600;28;20050;-80
2021/08/31 05:17:37;;;;;;;0.20;0.20;;;;;;;17.83;67.92;102631.66;4998641;28;20051;-80
2021/08/31 05:20:04;;;;;;;;;;;;;;;17.92;68.03;102626.13;5000012;28;20031;-90
2021/08/31 05:22:31;;;;;;;0.10;0.10;;;;;;;17.81;68.38;102633.47;4999354;28;19917;-81
2021/08/31 05:25:01;;;;;;;0.30;0.30;;;;;;;17.80;68.18;102637.97;4996525;28;20031;-81
2021/08/31 05:27:28;;;;;;;0.17;0.17;;;;;;;17.90;68.03;102644.03;4993053;28;20022;-90
2021/08/31 05:29:54;;;;;;;0.10;0.10;;;;;;;17.97;67.53;102642.09;4991214;28;20082;-91
2021/08/31 05:32:21;;;;;;;0.35;0.35;;;;;;;17.95;67.76;102647.50;5016826;28;20041;-82
2021/08/31 05:34:47;;;;;;;0.10;0.10;;;;;;;17.89;67.86;102648.47;5019524;28;20026;-94
2021/08/31 05:37:13;;;;;;;0.47;0.47;;;;;;;17.90;67.73;102647.56;4991152;28;20133;-94
2021/08/31 05:39:53;;;;;;;0.10;0.10;;;;;;;17.98;67.77;102651.91;4991284;28;20190;-96
2021/08/31 05:42:22;;;;;;;0.10;0.10;;;;;;;17.94;67.87;102656.47;4982517;28;20042;-81
2021/08/31 05:44:48;;;;;;;3.83;0.57;;;;;;;17.94;67.96;102661.84;5001995;28;20094;-82
2021/08/31 05:47:14;;;;;;;0.50;0.50;;;;;;;17.97;67.76;102653.75;4992937;28;20030;-96
2021/08/31 05:49:42;;;;;;;0.10;0.10;;;;;;;17.98;67.76;102657.28;4994240;28;20050;-96
2021/08/31 05:52:12;;;;;;;0.10;0.10;;;;;;;18.00;67.85;102660.81;5007086;28;20030;-96
2021/08/31 05:54:38;;;;;;;0.10;0.10;;;;;;;18.01;68.02;102666.16;4980372;28;20038;-96
2021/08/31 05:57:10;;;;;;;0.10;0.10;;;;;;;18.05;68.32;102659.78;4985290;28;20018;-96
2021/08/31 05:59:39;;;;;;;1.27;0.65;;;;;;;18.02;68.43;102670.59;4986066;28;20138;-94
2021/08/31 06:02:17;;;;;;;1.25;1.00;;;;;;;18.14;68.15;102674.78;4987762;28;20059;-94
2021/08/31 06:04:43;;;;;;;0.10;0.10;;;;;;;18.10;68.36;102673.97;4961955;28;20027;-95
2021/08/31 06:07:11;;;;;;;0.88;0.85;;;;;;;18.16;68.46;102682.84;4979041;28;20058;-91
2021/08/31 06:09:47;;;;;;;0.50;0.50;;;;;;;18.23;68.02;102677.28;4981090;28;20375;-90
2021/08/31 06:12:14;;;;;;;0.75;0.75;;;;;;;18.33;67.56;102677.97;4987437;28;20182;-93
2021/08/31 06:14:49;;;;;;;0.45;0.45;;;;;;;18.27;67.94;102678.97;4993942;28;20023;-86
2021/08/31 06:17:18;;;;;;;0.65;0.65;;;;;;;18.34;67.70;102674.34;4983503;28;20111;-96
2021/08/31 06:19:45;;;;;;;0.20;0.20;;;;;;;18.40;67.54;102682.22;4979765;28;20026;-96
2021/08/31 06:22:11;;;;;;;0.10;0.10;;;;;;;18.41;67.60;102685.81;4981378;28;20027;-96
2021/08/31 06:24:38;;;;;;;0.15;0.15;;;;;;;18.43;67.45;102682.19;4983337;28;20098;-96
2021/08/31 06:27:04;;;;;;;1.15;1.05;;;;;;;18.42;67.69;102683.09;4980083;28;20022;-96
2021/08/31 06:29:31;;;;;;;0.10;0.10;;;;;;;18.48;67.39;102686.53;4979112;28;20478;-94
2021/08/31 06:31:58;;;;;;;0.10;0.10;;;;;;;18.51;67.34;102686.50;4987194;28;20042;-90
2021/08/31 06:34:24;;;;;;;1.08;0.63;;;;;;;18.43;67.43;102692.03;4985197;28;20066;-95
2021/08/31 06:36:54;;;;;;;0.10;0.10;;;;;;;18.57;67.44;102683.66;4988095;28;20035;-86
2021/08/31 06:39:21;;;;;;;0.10;0.10;;;;;;;18.62;67.13;102681.75;4994981;28;20094;-92
2021/08/31 06:41:53;;;;;;;0.80;0.77;;;;;;;18.67;67.13;102690.56;4993152;28;20026;-94
2021/08/31 06:44:20;;;;;;;0.10;0.10;;;;;;;18.68;67.09;102691.44;5006271;22;20129;-85
2021/08/31 06:46:46;;;;;;;0.10;0.10;;;;;;;18.69;67.28;102690.50;4996452;28;20094;-91
2021/08/31 06:49:13;;;;;;;0.10;0.10;;;;;;;18.73;67.26;102693.09;4995939;28;20073;-89
2021/08/31 06:51:39;;;;;;;0.43;0.43;;;;;;;18.85;66.93;102685.66;4995888;28;20476;-88
2021/08/31 06:54:05;;;;;;;0.28;0.28;;;;;;;18.85;66.95;102688.34;4994456;28;20034;-89
2021/08/31 06:56:31;;;;;;;0.20;0.20;;;;;;;18.88;67.05;102686.44;4995121;28;20035;-90
2021/08/31 06:58:58;;;;;;;0.40;0.40;;;;;;;18.97;66.78;102688.06;4995302;28;20113;-89
2021/08/31 07:01:25;;;;;;;0.57;0.57;;;;;;;19.02;66.82;102686.13;4995011;28;20439;-89
2021/08/31 07:03:51;;;;;;;0.10;0.10;;;;;;;18.97;66.38;102690.72;4995448;28;20038;-89
2021/08/31 07:06:17;;;;;;;0.52;0.52;;;;;;;19.07;66.32;102689.56;4995649;28;20469;-87
2021/08/31 07:08:44;;;;;;;0.10;0.10;;;;;;;19.13;66.42;102693.91;4994312;28;20049;-89
2021/08/31 07:11:10;;;;;;;0.22;0.22;;;;;;;19.05;66.12;102691.44;4994951;28;20069;-89
2021/08/31 07:13:39;;;;;;;0.10;0.10;;;;;;;19.32;65.69;102696.09;4994997;28;20031;-90
2021/08/31 07:16:06;;;;;;;0.20;0.20;;;;;;;19.36;65.64;102695.94;4994813;28;20041;-89
2021/08/31 07:18:32;;;;;;;2.20;0.45;;;;;;;19.43;65.75;102707.44;4995115;28;20420;-90
2021/08/31 07:20:59;;;;;;;0.10;0.10;;;;;;;19.53;65.41;102702.69;4994869;28;20038;-89
2021/08/31 07:23:26;;;;;;;0.25;0.25;;;;;;;19.58;65.33;102705.22;4995044;28;20030;-91
2021/08/31 07:25:53;;;;;;;0.40;0.40;;;;;;;19.59;64.86;102691.75;4995004;28;20425;-88
2021/08/31 07:28:19;;;;;;;0.63;0.63;;;;;;;19.66;65.04;102692.44;4995127;28;20058;-90
2021/08/31 07:30:49;;;;;;;0.10;0.10;;;;;;;19.70;64.84;102695.03;4994783;28;20120;-88
2021/08/31 07:33:15;;;;;;;0.10;0.10;;;;;;;19.75;64.72;102691.31;4994525;28;20061;-88
2021/08/31 07:35:43;;;;;;;0.20;0.20;;;;;;;19.75;64.55;102702.06;4994337;28;20034;-88
2021/08/31 07:38:10;;;;;;;0.10;0.10;;;;;;;19.83;64.21;102709.00;4994023;28;20393;-88
2021/08/31 07:40:36;;;;;;;0.00;0.00;;;;;;;19.85;63.87;102708.97;4993040;28;20039;-86
2021/08/31 07:43:02;;;;;;;0.10;0.10;;;;;;;19.87;63.99;102713.38;4994140;28;20038;-87
2021/08/31 07:45:28;;;;;;;0.10;0.10;;;;;;;19.97;63.39;102708.59;4993692;28;20038;-87
2021/08/31 07:47:55;;;;;;;1.02;0.93;;;;;;;20.07;63.79;102708.34;4994323;28;20093;-87
2021/08/31 07:50:21;;;;;;;0.10;0.10;;;;;;;20.16;63.90;102705.34;4994315;28;20120;-93
2021/08/31 07:52:48;;;;;;;1.10;1.00;;;;;;;20.24;63.72;102707.78;4995151;28;20045;-90
2021/08/31 07:55:16;;;;;;;0.95;0.95;;;;;;;20.20;63.55;102704.34;4994555;28;20045;-90
2021/08/31 07:57:45;;;;;;;0.52;0.52;;;;;;;20.32;63.02;102708.44;4995150;28;20053;-90
2021/08/31 08:00:13;;;;;;;0.20;0.20;;;;;;;20.39;62.77;102703.75;4995612;28;20450;-91
2021/08/31 08:02:42;;;;;;;0.10;0.10;;;;;;;20.46;62.93;102705.31;4994513;28;20122;-92
2021/08/31 08:05:10;;;;;;;1.90;0.82;;;;;;;20.51;62.35;102709.63;4996421;28;20485;-92
2021/08/31 08:07:37;;;;;;;0.10;0.10;;;;;;;20.53;62.49;102699.66;4994144;28;20046;-93
2021/08/31 08:10:04;;;;;;;0.08;0.08;;;;;;;20.61;62.11;102707.53;4995163;28;20373;-91
2021/08/31 08:12:30;;;;;;;0.10;0.10;;;;;;;20.71;61.84;102699.13;4994572;28;20065;-92
2021/08/31 08:15:22;;;;;;;0.05;0.05;;;;;;;20.91;61.95;102711.97;5130613;22;20053;-82
2021/08/31 08:18:06;;;;;;;0.10;0.10;;;;;;;20.95;61.04;102710.94;4972772;28;20054;-83
2021/08/31 08:21:05;;;;;;;1.65;0.52;;;;;;;21.08;60.84;102706.00;5088351;22;20051;-82
2021/08/31 08:27:05;;;;;;;0.80;0.80;;;;;;;21.42;60.05;102716.47;5705380;22;20036;-82
2021/08/31 08:29:44;;;;;;;0.47;0.47;;;;;;;21.47;60.60;102711.78;5038736;22;20050;-84
2021/08/31 08:34:48;;;;;;;0.50;0.50;;;;;;;21.72;59.56;102718.13;5005036;28;20041;-95
2021/08/31 08:37:14;;;;;;;1.67;1.55;;;;;;;21.76;59.48;102727.88;4995000;28;20026;-93
2021/08/31 08:39:40;;;;;;;0.47;0.47;;;;;;;21.79;59.09;102723.25;4993324;28;20034;-94
2021/08/31 08:42:08;;;;;;;0.10;0.10;;;;;;;21.89;58.69;102729.16;4986451;28;20022;-92
2021/08/31 08:44:35;;;;;;;0.20;0.20;;;;;;;21.89;58.01;102729.16;4980708;28;20097;-95
2021/08/31 08:47:02;;;;;;;0.55;0.55;;;;;;;21.98;56.95;102734.22;4975917;28;20030;-94
2021/08/31 08:49:29;;;;;;;0.40;0.38;;;;;;;22.11;57.71;102739.13;4986599;28;20041;-93
2021/08/31 08:52:23;;;;;;;0.47;0.47;;;;;;;22.27;57.41;102736.72;4991368;28;20034;-93
2021/08/31 08:54:50;;;;;;;0.10;0.10;;;;;;;22.23;55.72;102733.25;5008068;28;20041;-96
2021/08/31 08:57:19;;;;;;;0.20;0.20;;;;;;;22.37;57.17;102739.91;4995876;28;20010;-96
2021/08/31 08:59:49;;;;;;;0.10;0.10;;;;;;;22.44;56.41;102736.97;5011077;28;20010;-92
2021/08/31 09:02:38;;;;;;;0.10;0.10;;;;;;;22.69;56.32;102735.97;4987094;28;20033;-89
2021/08/31 09:05:06;;;;;;;0.10;0.10;;;;;;;22.72;56.69;102729.56;4983804;28;20034;-92
2021/08/31 09:07:37;;;;;;;0.32;0.32;;;;;;;22.66;55.21;102741.47;4987361;28;20026;-94
2021/08/31 09:10:23;;;;;;;2.50;0.75;;;;;;;22.78;55.02;102742.81;4986036;28;20026;-83
2021/08/31 09:12:52;;;;;;;0.10;0.10;;;;;;;22.79;55.63;102752.66;4991316;28;20022;-86
2021/08/31 09:23:30;;;;;;;0.22;0.22;;;;;;;22.77;53.72;102749.16;5075742;27;20957;-94
2021/08/31 09:26:06;;;;;;;2.35;1.30;;;;;;;22.91;54.69;102752.13;5044926;28;20490;-86
2021/08/31 09:31:19;;;;;;;0.10;0.10;;;;;;;23.14;54.66;102750.31;5079669;27;20430;-92
2021/08/31 09:33:49;;;;;;;0.10;0.10;;;;;;;23.22;54.54;102745.47;5068417;28;20383;-82
2021/08/31 09:39:00;;;;;;;0.20;0.20;;;;;;;23.63;52.88;102751.78;5079261;27;20463;-90
2021/08/31 09:44:11;;;;;;;0.30;0.30;;;;;;;24.05;51.80;102745.38;5090493;22;20397;31
2021/08/31 09:49:39;;;;;;;0.10;0.10;;;;;;;24.04;51.18;102749.06;5020283;28;1233442;-81
2021/08/31 09:52:11;;;;;;;0.10;0.10;;;;;;;24.14;52.59;102744.06;5055993;28;20083;-81
2021/08/31 09:54:46;;;;;;;0.38;0.38;;;;;;;24.27;52.79;102734.41;5052046;28;20400;-80
2021/08/31 09:57:28;;;;;;;0.10;0.10;;;;;;;24.43;51.15;102741.81;5036687;28;20029;-81
2021/08/31 09:59:55;;;;;;;0.08;0.08;;;;;;;24.40;51.38;102740.13;5036981;28;20152;-81
2021/08/31 10:02:23;;;;;;;1.60;1.25;;;;;;;24.46;51.62;102739.84;5038250;28;20104;-82
2021/08/31 10:04:50;;;;;;;0.10;0.10;;;;;;;24.51;51.53;102743.19;5036180;28;20538;-81
2021/08/31 10:07:17;;;;;;;0.65;0.65;;;;;;;24.49;50.71;102745.09;5037775;28;20027;-80
2021/08/31 10:09:43;;;;;;;0.20;0.20;;;;;;;24.44;51.14;102746.28;5040310;28;20021;-82
2021/08/31 10:12:10;;;;;;;0.10;0.10;;;;;;;24.37;50.50;102745.69;5036151;28;20030;-81
2021/08/31 10:14:43;;;;;;;0.10;0.10;;;;;;;24.32;51.53;102745.03;5040337;28;20032;-81
2021/08/31 10:17:11;;;;;;;0.30;0.30;;;;;;;24.29;52.05;102747.88;5038491;28;20380;-85
2021/08/31 10:19:40;;;;;;;0.10;0.10;;;;;;;24.27;51.06;102749.81;5043534;28;20120;-82
2021/08/31 10:22:09;;;;;;;1.05;1.05;;;;;;;24.23;51.34;102754.50;5050028;28;20492;-81
2021/08/31 10:24:36;;;;;;;0.10;0.10;;;;;;;24.22;51.55;102750.91;5054719;28;20063;-81
2021/08/31 10:27:30;;;;;;;0.00;0.00;;;;;;;24.18;50.78;102757.41;5045863;28;20432;-81
2021/08/31 10:32:59;;;;;;;0.03;0.03;;;;;;;24.11;51.13;102758.63;5021168;28;1217565;-82
2021/08/31 10:38:13;;;;;;;0.95;0.63;;;;;;;24.03;51.40;102759.00;5077725;28;20415;-81
2021/08/31 10:43:21;;;;;;;0.30;0.30;;;;;;;24.11;52.03;102761.34;5080489;27;20452;-82
2021/08/31 10:45:57;;;;;;;0.10;0.10;;;;;;;24.18;51.52;102765.53;5060490;28;20026;-82
2021/08/31 10:51:11;;;;;;;0.70;0.63;;;;;;;24.20;51.99;102765.44;5080197;27;20928;-83
2021/08/31 10:56:29;;;;;;;0.10;0.10;;;;;;;24.25;51.61;102765.25;5129452;27;20394;-84
2021/08/31 10:59:02;;;;;;;3.53;1.65;;;;;;;24.42;51.05;102761.72;5118984;28;20070;-83
2021/08/31 11:01:39;;;;;;;0.10;0.10;;;;;;;24.74;50.80;102762.03;5118580;28;20110;-84
2021/08/31 11:04:29;;;;;;;0.13;0.13;;;;;;;24.97;50.11;102755.41;5125215;27;20089;-83
2021/08/31 11:06:58;;;;;;;0.63;0.63;;;;;;;25.14;49.95;102762.72;5107684;28;20362;-84
2021/08/31 11:09:25;;;;;;;0.10;0.10;;;;;;;25.31;49.60;102761.81;5109847;28;20020;-83
2021/08/31 11:12:03;;;;;;;0.10;0.10;;;;;;;25.42;48.96;102767.59;5109858;28;20087;-85
2021/08/31 11:14:53;;;;;;;0.10;0.10;;;;;;;25.31;48.07;102769.94;5150671;22;20061;-91
2021/08/31 11:17:38;;;;;;;0.32;0.32;;;;;;;25.10;48.72;102775.53;5109498;28;20451;-91
2021/08/31 11:23:25;;;;;;;0.13;0.13;;;;;;;25.25;48.20;102770.31;5089109;27;20413;-84
2021/08/31 11:26:20;;;;;;;0.10;0.10;;;;;;;25.41;47.67;102765.84;5069532;28;20488;-89
2021/08/31 11:28:46;;;;;;;0.20;0.20;;;;;;;25.48;47.86;102759.16;5070181;28;20057;-93
2021/08/31 11:31:15;;;;;;;0.10;0.10;;;;;;;25.63;47.68;102759.25;5070286;28;20033;-92
2021/08/31 11:33:43;;;;;;;0.10;0.10;;;;;;;25.74;47.03;102761.41;5070753;28;20408;-92
2021/08/31 11:36:13;;;;;;;0.10;0.10;;;;;;;25.87;47.32;102761.59;5073274;28;20032;-93
2021/08/31 11:41:33;;;;;;;0.10;0.10;;;;;;;26.03;45.12;102764.34;5069845;28;20419;-92
2021/08/31 11:44:04;;;;;;;0.10;0.10;;;;;;;25.96;45.31;102761.13;5050266;28;20049;-88
2021/08/31 11:46:32;;;;;;;0.10;0.10;;;;;;;26.03;45.04;102759.78;5030545;28;20103;-93
2021/08/31 11:52:24;;;;;;;0.40;0.40;;;;;;;26.36;44.72;102758.91;5069202;28;20410;-92
2021/08/31 11:54:54;;;;;;;0.20;0.20;;;;;;;26.21;44.58;102760.66;5062791;28;20087;-89
2021/08/31 11:57:22;;;;;;;0.30;0.30;;;;;;;25.98;43.88;102761.88;5049402;28;20029;-90
2021/08/31 12:02:37;;;;;;;0.20;0.20;;;;;;;25.92;45.62;102763.13;5072780;28;20445;-91
2021/08/31 12:05:06;;;;;;;0.00;0.00;;;;;;;26.07;43.94;102764.16;5060757;28;20048;-87
2021/08/31 12:07:42;;;;;;;0.35;0.35;;;;;;;26.32;44.81;102763.63;5049386;28;20033;-86
2021/08/31 12:10:11;;;;;;;0.05;0.05;;;;;;;26.37;44.93;102771.53;5049637;28;20047;-89
2021/08/31 12:12:41;;;;;;;0.52;0.52;;;;;;;26.60;44.76;102774.78;5051874;28;20077;-89
2021/08/31 12:15:09;;;;;;;0.15;0.15;;;;;;;26.41;44.42;102778.53;5063534;28;20033;-89
2021/08/31 12:17:41;;;;;;;0.75;0.75;;;;;;;26.12;44.39;102774.72;5064904;28;20037;-89
2021/08/31 12:20:18;;;;;;;0.10;0.10;;;;;;;26.13;45.52;102773.78;5063805;28;20225;-87
2021/08/31 12:22:46;;;;;;;0.10;0.10;;;;;;;26.05;44.75;102782.31;5064738;28;20032;-89
2021/08/31 12:25:13;;;;;;;0.30;0.30;;;;;;;26.16;45.48;102788.06;5059899;28;20100;-87
2021/08/31 12:27:49;;;;;;;0.50;0.50;;;;;;;26.22;44.78;102784.16;5049274;28;20033;-91
2021/08/31 12:30:18;;;;;;;0.40;0.40;;;;;;;26.13;44.49;102788.25;5048769;28;20029;-90
2021/08/31 12:32:53;;;;;;;0.20;0.20;;;;;;;26.23;44.11;102785.00;5048481;28;20025;-90
2021/08/31 12:43:58;;;;;;;0.05;0.05;;;;;;;26.82;42.20;102787.13;5089431;27;20473;-92
2021/08/31 12:46:28;;;;;;;0.10;0.10;;;;;;;26.78;42.45;102787.31;5048333;28;20060;-91
2021/08/31 12:51:54;;;;;;;0.47;0.47;;;;;;;26.88;42.31;102800.38;5069018;28;20852;-89
2021/08/31 12:54:31;;;;;;;0.00;0.00;;;;;;;26.98;41.71;102785.28;5046619;28;20033;-88
2021/08/31 12:57:00;;;;;;;0.20;0.20;;;;;;;27.17;42.61;102786.91;5028088;28;20034;-92
2021/08/31 12:59:39;;;;;;;0.00;0.00;;;;;;;27.27;42.37;102786.25;5031527;28;20037;-91
2021/08/31 13:02:07;;;;;;;0.20;0.20;;;;;;;27.03;41.84;102793.16;5027540;28;20377;-87
2021/08/31 13:04:36;;;;;;;0.00;0.00;;;;;;;26.91;42.21;102792.91;5031183;28;20029;-91
2021/08/31 13:07:08;;;;;;;0.10;0.10;;;;;;;26.77;42.71;102784.72;5028450;28;20018;-90
2021/08/31 13:09:36;;;;;;;0.00;0.00;;;;;;;26.69;43.50;102793.25;5026093;28;20088;-92
2021/08/31 13:12:03;;;;;;;0.10;0.10;;;;;;;26.64;42.71;102795.38;5026108;28;20034;-90